sensor_id;sensor_type;location;lat;lon;timestamp;P1;durP1;ratioP1;P2;durP2;ratioP2
7205;SDS011;3644;53.480;10.004;2024-01-06T00:02:05;12.17;;;5.70;;
7205;SDS011;3644;53.480;10.004;2024-01-06T00:04:31;7.43;;;5.63;;
7205;SDS011;3644;53.480;10.004;2024-01-06T00:06:56;11.50;;;6.10;;
7205;SDS011;3644;53.480;10.004;2024-01-06T00:09:22;8.67;;;5.97;;
7205;SDS011;3644;53.480;10.004;2024-01-06T00:11:47;7.20;;;5.30;;
7205;SDS011;3644;53.480;10.004;2024-01-06T00:14:13;8.07;;;5.60;;
7205;SDS011;3644;53.480;10.004;2024-01-06T00:16:38;8.17;;;6.03;;
7205;SDS011;3644;53.480;10.004;2024-01-06T00:19:04;11.80;;;5.53;;
7205;SDS011;3644;53.480;10.004;2024-01-06T00:21:29;9.60;;;6.07;;
7205;SDS011;3644;53.480;10.004;2024-01-06T00:23:55;9.20;;;6.47;;
7205;SDS011;3644;53.480;10.004;2024-01-06T00:26:21;9.77;;;6.00;;
7205;SDS011;3644;53.480;10.004;2024-01-06T00:28:46;10.93;;;6.03;;
7205;SDS011;3644;53.480;10.004;2024-01-06T00:31:14;7.43;;;5.73;;
7205;SDS011;3644;53.480;10.004;2024-01-06T00:33:41;8.23;;;5.80;;
7205;SDS011;3644;53.480;10.004;2024-01-06T00:36:06;7.77;;;6.07;;
7205;SDS011;3644;53.480;10.004;2024-01-06T00:38:32;12.90;;;7.13;;
7205;SDS011;3644;53.480;10.004;2024-01-06T00:40:58;9.33;;;6.53;;
7205;SDS011;3644;53.480;10.004;2024-01-06T00:43:23;8.40;;;5.23;;
7205;SDS011;3644;53.480;10.004;2024-01-06T00:45:49;10.27;;;5.97;;
7205;SDS011;3644;53.480;10.004;2024-01-06T00:48:14;9.27;;;6.60;;
7205;SDS011;3644;53.480;10.004;2024-01-06T00:50:40;7.40;;;5.90;;
7205;SDS011;3644;53.480;10.004;2024-01-06T00:53:05;9.40;;;7.17;;
7205;SDS011;3644;53.480;10.004;2024-01-06T00:55:31;7.90;;;6.13;;
7205;SDS011;3644;53.480;10.004;2024-01-06T00:57:56;11.13;;;5.73;;
7205;SDS011;3644;53.480;10.004;2024-01-06T01:00:22;13.43;;;7.33;;
7205;SDS011;3644;53.480;10.004;2024-01-06T01:02:47;6.93;;;4.97;;
7205;SDS011;3644;53.480;10.004;2024-01-06T01:05:13;9.03;;;5.83;;
7205;SDS011;3644;53.480;10.004;2024-01-06T01:07:39;8.87;;;6.37;;
7205;SDS011;3644;53.480;10.004;2024-01-06T01:10:04;10.80;;;6.80;;
7205;SDS011;3644;53.480;10.004;2024-01-06T01:12:30;7.67;;;5.33;;
7205;SDS011;3644;53.480;10.004;2024-01-06T01:14:56;8.27;;;5.30;;
7205;SDS011;3644;53.480;10.004;2024-01-06T01:17:22;9.73;;;6.83;;
7205;SDS011;3644;53.480;10.004;2024-01-06T01:19:47;13.90;;;5.80;;
7205;SDS011;3644;53.480;10.004;2024-01-06T01:22:13;18.93;;;7.07;;
7205;SDS011;3644;53.480;10.004;2024-01-06T01:24:39;9.63;;;6.63;;
7205;SDS011;3644;53.480;10.004;2024-01-06T01:27:04;9.93;;;6.80;;
7205;SDS011;3644;53.480;10.004;2024-01-06T01:29:30;7.30;;;5.60;;
7205;SDS011;3644;53.480;10.004;2024-01-06T01:31:56;16.20;;;7.30;;
7205;SDS011;3644;53.480;10.004;2024-01-06T01:34:21;18.70;;;8.17;;
7205;SDS011;3644;53.480;10.004;2024-01-06T01:36:47;7.20;;;5.50;;
7205;SDS011;3644;53.480;10.004;2024-01-06T01:39:12;10.53;;;6.63;;
7205;SDS011;3644;53.480;10.004;2024-01-06T01:41:38;10.40;;;6.53;;
7205;SDS011;3644;53.480;10.004;2024-01-06T01:44:04;10.30;;;6.13;;
7205;SDS011;3644;53.480;10.004;2024-01-06T01:46:30;8.73;;;6.63;;
7205;SDS011;3644;53.480;10.004;2024-01-06T01:48:56;7.97;;;6.20;;
7205;SDS011;3644;53.480;10.004;2024-01-06T01:51:23;25.70;;;6.50;;
7205;SDS011;3644;53.480;10.004;2024-01-06T01:53:51;7.73;;;6.40;;
7205;SDS011;3644;53.480;10.004;2024-01-06T01:56:18;10.10;;;6.30;;
7205;SDS011;3644;53.480;10.004;2024-01-06T01:58:44;8.47;;;6.80;;
7205;SDS011;3644;53.480;10.004;2024-01-06T02:01:10;12.73;;;6.93;;
7205;SDS011;3644;53.480;10.004;2024-01-06T02:03:35;15.80;;;7.60;;
7205;SDS011;3644;53.480;10.004;2024-01-06T02:06:02;11.17;;;6.87;;
7205;SDS011;3644;53.480;10.004;2024-01-06T02:08:28;8.90;;;6.53;;
7205;SDS011;3644;53.480;10.004;2024-01-06T02:10:56;10.00;;;7.07;;
7205;SDS011;3644;53.480;10.004;2024-01-06T02:13:22;17.17;;;7.87;;
7205;SDS011;3644;53.480;10.004;2024-01-06T02:15:48;9.40;;;6.67;;
7205;SDS011;3644;53.480;10.004;2024-01-06T02:18:14;8.13;;;6.90;;
7205;SDS011;3644;53.480;10.004;2024-01-06T02:20:40;8.60;;;6.73;;
7205;SDS011;3644;53.480;10.004;2024-01-06T02:23:08;12.97;;;7.60;;
7205;SDS011;3644;53.480;10.004;2024-01-06T02:25:34;20.33;;;7.70;;
7205;SDS011;3644;53.480;10.004;2024-01-06T02:28:00;11.77;;;6.67;;
7205;SDS011;3644;53.480;10.004;2024-01-06T02:30:25;13.57;;;7.30;;
7205;SDS011;3644;53.480;10.004;2024-01-06T02:32:51;10.27;;;6.70;;
7205;SDS011;3644;53.480;10.004;2024-01-06T02:35:17;12.30;;;7.40;;
7205;SDS011;3644;53.480;10.004;2024-01-06T02:37:43;13.53;;;7.13;;
7205;SDS011;3644;53.480;10.004;2024-01-06T02:40:09;11.97;;;7.00;;
7205;SDS011;3644;53.480;10.004;2024-01-06T02:42:35;10.20;;;6.23;;
7205;SDS011;3644;53.480;10.004;2024-01-06T02:45:00;11.17;;;7.60;;
7205;SDS011;3644;53.480;10.004;2024-01-06T02:47:26;9.90;;;6.60;;
7205;SDS011;3644;53.480;10.004;2024-01-06T02:49:51;9.20;;;6.20;;
7205;SDS011;3644;53.480;10.004;2024-01-06T02:52:17;17.37;;;7.90;;
7205;SDS011;3644;53.480;10.004;2024-01-06T02:54:42;11.40;;;7.60;;
7205;SDS011;3644;53.480;10.004;2024-01-06T02:57:08;11.03;;;7.83;;
7205;SDS011;3644;53.480;10.004;2024-01-06T02:59:33;8.73;;;6.87;;
7205;SDS011;3644;53.480;10.004;2024-01-06T03:01:59;12.00;;;7.40;;
7205;SDS011;3644;53.480;10.004;2024-01-06T03:04:26;13.00;;;8.00;;
7205;SDS011;3644;53.480;10.004;2024-01-06T03:06:51;14.00;;;8.17;;
7205;SDS011;3644;53.480;10.004;2024-01-06T03:09:18;9.10;;;6.33;;
7205;SDS011;3644;53.480;10.004;2024-01-06T03:11:44;11.13;;;7.00;;
7205;SDS011;3644;53.480;10.004;2024-01-06T03:14:10;10.10;;;7.50;;
7205;SDS011;3644;53.480;10.004;2024-01-06T03:16:35;11.10;;;6.97;;
7205;SDS011;3644;53.480;10.004;2024-01-06T03:19:01;10.13;;;7.73;;
7205;SDS011;3644;53.480;10.004;2024-01-06T03:21:26;10.00;;;7.00;;
7205;SDS011;3644;53.480;10.004;2024-01-06T03:23:52;13.83;;;7.80;;
7205;SDS011;3644;53.480;10.004;2024-01-06T03:26:20;13.60;;;7.47;;
7205;SDS011;3644;53.480;10.004;2024-01-06T03:28:47;12.00;;;7.33;;
7205;SDS011;3644;53.480;10.004;2024-01-06T03:31:14;12.43;;;7.10;;
7205;SDS011;3644;53.480;10.004;2024-01-06T03:33:40;9.13;;;5.93;;
7205;SDS011;3644;53.480;10.004;2024-01-06T03:36:05;11.63;;;7.73;;
7205;SDS011;3644;53.480;10.004;2024-01-06T03:38:32;8.60;;;6.50;;
7205;SDS011;3644;53.480;10.004;2024-01-06T03:40:58;11.43;;;7.27;;
7205;SDS011;3644;53.480;10.004;2024-01-06T03:43:23;10.20;;;7.13;;
7205;SDS011;3644;53.480;10.004;2024-01-06T03:45:49;10.93;;;7.13;;
7205;SDS011;3644;53.480;10.004;2024-01-06T03:48:14;10.67;;;6.77;;
7205;SDS011;3644;53.480;10.004;2024-01-06T03:50:40;10.30;;;8.37;;
7205;SDS011;3644;53.480;10.004;2024-01-06T03:53:05;10.33;;;6.63;;
7205;SDS011;3644;53.480;10.004;2024-01-06T03:55:31;9.97;;;7.37;;
7205;SDS011;3644;53.480;10.004;2024-01-06T03:57:57;11.97;;;8.27;;
7205;SDS011;3644;53.480;10.004;2024-01-06T04:00:23;7.80;;;6.13;;
7205;SDS011;3644;53.480;10.004;2024-01-06T04:02:50;13.43;;;8.00;;
7205;SDS011;3644;53.480;10.004;2024-01-06T04:05:16;20.53;;;7.40;;
7205;SDS011;3644;53.480;10.004;2024-01-06T04:07:41;13.60;;;8.80;;
7205;SDS011;3644;53.480;10.004;2024-01-06T04:10:07;11.67;;;8.13;;
7205;SDS011;3644;53.480;10.004;2024-01-06T04:12:33;11.30;;;6.97;;
7205;SDS011;3644;53.480;10.004;2024-01-06T04:14:58;15.97;;;7.20;;
7205;SDS011;3644;53.480;10.004;2024-01-06T04:17:24;9.53;;;6.60;;
7205;SDS011;3644;53.480;10.004;2024-01-06T04:19:51;10.00;;;7.10;;
7205;SDS011;3644;53.480;10.004;2024-01-06T04:22:17;10.27;;;7.10;;
7205;SDS011;3644;53.480;10.004;2024-01-06T04:24:43;14.67;;;7.30;;
7205;SDS011;3644;53.480;10.004;2024-01-06T04:27:09;11.50;;;7.83;;
7205;SDS011;3644;53.480;10.004;2024-01-06T04:29:34;10.70;;;6.73;;
7205;SDS011;3644;53.480;10.004;2024-01-06T04:32:00;12.37;;;7.70;;
7205;SDS011;3644;53.480;10.004;2024-01-06T04:34:26;16.67;;;7.03;;
7205;SDS011;3644;53.480;10.004;2024-01-06T04:36:51;8.40;;;6.73;;
7205;SDS011;3644;53.480;10.004;2024-01-06T04:39:17;19.13;;;8.30;;
7205;SDS011;3644;53.480;10.004;2024-01-06T04:41:43;10.40;;;7.57;;
7205;SDS011;3644;53.480;10.004;2024-01-06T04:44:08;17.37;;;8.17;;
7205;SDS011;3644;53.480;10.004;2024-01-06T04:46:34;9.70;;;6.80;;
7205;SDS011;3644;53.480;10.004;2024-01-06T04:48:59;16.80;;;6.87;;
7205;SDS011;3644;53.480;10.004;2024-01-06T04:51:25;18.40;;;8.70;;
7205;SDS011;3644;53.480;10.004;2024-01-06T04:53:50;7.97;;;6.87;;
7205;SDS011;3644;53.480;10.004;2024-01-06T04:56:16;8.57;;;7.00;;
7205;SDS011;3644;53.480;10.004;2024-01-06T04:58:41;13.33;;;7.97;;
7205;SDS011;3644;53.480;10.004;2024-01-06T05:01:07;8.83;;;6.60;;
7205;SDS011;3644;53.480;10.004;2024-01-06T05:03:33;12.90;;;8.50;;
7205;SDS011;3644;53.480;10.004;2024-01-06T05:05:58;11.63;;;7.20;;
7205;SDS011;3644;53.480;10.004;2024-01-06T05:08:24;10.10;;;7.60;;
7205;SDS011;3644;53.480;10.004;2024-01-06T05:10:51;11.77;;;7.10;;
7205;SDS011;3644;53.480;10.004;2024-01-06T05:13:18;9.83;;;6.90;;
7205;SDS011;3644;53.480;10.004;2024-01-06T05:15:43;11.87;;;7.97;;
7205;SDS011;3644;53.480;10.004;2024-01-06T05:18:09;9.97;;;7.00;;
7205;SDS011;3644;53.480;10.004;2024-01-06T05:20:34;14.07;;;9.47;;
7205;SDS011;3644;53.480;10.004;2024-01-06T05:23:00;8.60;;;6.17;;
7205;SDS011;3644;53.480;10.004;2024-01-06T05:25:25;18.13;;;7.93;;
7205;SDS011;3644;53.480;10.004;2024-01-06T05:27:51;16.23;;;7.97;;
7205;SDS011;3644;53.480;10.004;2024-01-06T05:30:16;15.40;;;7.43;;
7205;SDS011;3644;53.480;10.004;2024-01-06T05:32:43;23.47;;;7.77;;
7205;SDS011;3644;53.480;10.004;2024-01-06T05:35:08;13.40;;;7.70;;
7205;SDS011;3644;53.480;10.004;2024-01-06T05:37:34;10.47;;;7.67;;
7205;SDS011;3644;53.480;10.004;2024-01-06T05:40:00;9.50;;;7.67;;
7205;SDS011;3644;53.480;10.004;2024-01-06T05:42:28;12.53;;;8.60;;
7205;SDS011;3644;53.480;10.004;2024-01-06T05:44:54;14.77;;;9.20;;
7205;SDS011;3644;53.480;10.004;2024-01-06T05:47:20;14.23;;;6.63;;
7205;SDS011;3644;53.480;10.004;2024-01-06T05:49:45;14.83;;;8.23;;
7205;SDS011;3644;53.480;10.004;2024-01-06T05:52:11;16.60;;;9.57;;
7205;SDS011;3644;53.480;10.004;2024-01-06T05:54:39;10.73;;;7.67;;
7205;SDS011;3644;53.480;10.004;2024-01-06T05:57:06;15.63;;;8.93;;
7205;SDS011;3644;53.480;10.004;2024-01-06T05:59:35;11.73;;;7.37;;
7205;SDS011;3644;53.480;10.004;2024-01-06T06:02:01;11.63;;;8.03;;
7205;SDS011;3644;53.480;10.004;2024-01-06T06:04:26;11.77;;;8.23;;
7205;SDS011;3644;53.480;10.004;2024-01-06T06:06:52;11.50;;;8.13;;
7205;SDS011;3644;53.480;10.004;2024-01-06T06:09:17;13.50;;;7.80;;
7205;SDS011;3644;53.480;10.004;2024-01-06T06:11:43;14.30;;;9.53;;
7205;SDS011;3644;53.480;10.004;2024-01-06T06:14:08;20.00;;;7.80;;
7205;SDS011;3644;53.480;10.004;2024-01-06T06:16:34;14.23;;;8.17;;
7205;SDS011;3644;53.480;10.004;2024-01-06T06:19:00;16.13;;;7.90;;
7205;SDS011;3644;53.480;10.004;2024-01-06T06:21:25;11.03;;;8.73;;
7205;SDS011;3644;53.480;10.004;2024-01-06T06:23:51;19.33;;;9.27;;
7205;SDS011;3644;53.480;10.004;2024-01-06T06:26:16;9.33;;;8.17;;
7205;SDS011;3644;53.480;10.004;2024-01-06T06:28:43;13.67;;;9.30;;
7205;SDS011;3644;53.480;10.004;2024-01-06T06:31:09;16.57;;;7.50;;
7205;SDS011;3644;53.480;10.004;2024-01-06T06:33:34;11.70;;;8.17;;
7205;SDS011;3644;53.480;10.004;2024-01-06T06:36:00;11.13;;;8.20;;
7205;SDS011;3644;53.480;10.004;2024-01-06T06:38:26;12.93;;;8.10;;
7205;SDS011;3644;53.480;10.004;2024-01-06T06:40:52;12.27;;;7.30;;
7205;SDS011;3644;53.480;10.004;2024-01-06T06:43:17;12.60;;;8.80;;
7205;SDS011;3644;53.480;10.004;2024-01-06T06:45:43;13.80;;;8.80;;
7205;SDS011;3644;53.480;10.004;2024-01-06T06:48:08;12.80;;;7.47;;
7205;SDS011;3644;53.480;10.004;2024-01-06T06:50:34;11.90;;;8.40;;
7205;SDS011;3644;53.480;10.004;2024-01-06T06:52:59;14.83;;;10.03;;
7205;SDS011;3644;53.480;10.004;2024-01-06T06:55:26;17.10;;;9.03;;
7205;SDS011;3644;53.480;10.004;2024-01-06T06:57:52;13.33;;;8.43;;
7205;SDS011;3644;53.480;10.004;2024-01-06T07:00:18;20.17;;;9.00;;
7205;SDS011;3644;53.480;10.004;2024-01-06T07:02:43;16.10;;;8.60;;
7205;SDS011;3644;53.480;10.004;2024-01-06T07:05:09;15.53;;;8.30;;
7205;SDS011;3644;53.480;10.004;2024-01-06T07:07:34;11.50;;;8.13;;
7205;SDS011;3644;53.480;10.004;2024-01-06T07:10:00;16.27;;;8.57;;
7205;SDS011;3644;53.480;10.004;2024-01-06T07:12:28;16.13;;;9.43;;
7205;SDS011;3644;53.480;10.004;2024-01-06T07:14:53;12.80;;;7.70;;
7205;SDS011;3644;53.480;10.004;2024-01-06T07:17:19;13.53;;;8.20;;
7205;SDS011;3644;53.480;10.004;2024-01-06T07:19:44;13.60;;;9.20;;
7205;SDS011;3644;53.480;10.004;2024-01-06T07:22:10;12.77;;;8.27;;
7205;SDS011;3644;53.480;10.004;2024-01-06T07:24:35;14.00;;;8.83;;
7205;SDS011;3644;53.480;10.004;2024-01-06T07:27:01;13.90;;;7.53;;
7205;SDS011;3644;53.480;10.004;2024-01-06T07:29:28;16.10;;;10.40;;
7205;SDS011;3644;53.480;10.004;2024-01-06T07:31:53;17.50;;;9.53;;
7205;SDS011;3644;53.480;10.004;2024-01-06T07:34:19;12.90;;;8.80;;
7205;SDS011;3644;53.480;10.004;2024-01-06T07:36:45;11.80;;;8.43;;
7205;SDS011;3644;53.480;10.004;2024-01-06T07:39:10;16.47;;;8.80;;
7205;SDS011;3644;53.480;10.004;2024-01-06T07:41:36;13.70;;;8.40;;
7205;SDS011;3644;53.480;10.004;2024-01-06T07:44:01;15.33;;;8.27;;
7205;SDS011;3644;53.480;10.004;2024-01-06T07:46:30;35.23;;;8.57;;
7205;SDS011;3644;53.480;10.004;2024-01-06T07:48:57;9.70;;;7.30;;
7205;SDS011;3644;53.480;10.004;2024-01-06T07:51:23;10.83;;;7.13;;
7205;SDS011;3644;53.480;10.004;2024-01-06T07:53:50;16.60;;;8.60;;
7205;SDS011;3644;53.480;10.004;2024-01-06T07:56:15;15.00;;;9.87;;
7205;SDS011;3644;53.480;10.004;2024-01-06T07:58:41;11.90;;;8.50;;
7205;SDS011;3644;53.480;10.004;2024-01-06T08:01:07;15.73;;;7.70;;
7205;SDS011;3644;53.480;10.004;2024-01-06T08:03:33;12.93;;;8.80;;
7205;SDS011;3644;53.480;10.004;2024-01-06T08:05:58;15.00;;;8.63;;
7205;SDS011;3644;53.480;10.004;2024-01-06T08:08:24;13.40;;;8.70;;
7205;SDS011;3644;53.480;10.004;2024-01-06T08:10:49;15.93;;;8.50;;
7205;SDS011;3644;53.480;10.004;2024-01-06T08:13:15;15.23;;;8.67;;
7205;SDS011;3644;53.480;10.004;2024-01-06T08:15:41;15.37;;;8.67;;
7205;SDS011;3644;53.480;10.004;2024-01-06T08:18:07;15.37;;;9.00;;
7205;SDS011;3644;53.480;10.004;2024-01-06T08:20:32;14.83;;;9.10;;
7205;SDS011;3644;53.480;10.004;2024-01-06T08:22:58;17.20;;;9.00;;
7205;SDS011;3644;53.480;10.004;2024-01-06T08:25:24;16.20;;;9.30;;
7205;SDS011;3644;53.480;10.004;2024-01-06T08:27:49;16.70;;;10.73;;
7205;SDS011;3644;53.480;10.004;2024-01-06T08:30:15;33.10;;;14.70;;
7205;SDS011;3644;53.480;10.004;2024-01-06T08:32:40;18.97;;;8.73;;
7205;SDS011;3644;53.480;10.004;2024-01-06T08:35:06;22.03;;;9.40;;
7205;SDS011;3644;53.480;10.004;2024-01-06T08:37:32;20.53;;;9.07;;
7205;SDS011;3644;53.480;10.004;2024-01-06T08:39:57;18.33;;;9.17;;
7205;SDS011;3644;53.480;10.004;2024-01-06T08:42:23;15.00;;;9.40;;
7205;SDS011;3644;53.480;10.004;2024-01-06T08:44:50;15.17;;;9.40;;
7205;SDS011;3644;53.480;10.004;2024-01-06T08:47:16;13.37;;;7.90;;
7205;SDS011;3644;53.480;10.004;2024-01-06T08:49:42;17.93;;;9.40;;
7205;SDS011;3644;53.480;10.004;2024-01-06T08:52:07;14.63;;;7.77;;
7205;SDS011;3644;53.480;10.004;2024-01-06T08:54:33;11.67;;;8.07;;
7205;SDS011;3644;53.480;10.004;2024-01-06T08:56:58;18.57;;;8.97;;
7205;SDS011;3644;53.480;10.004;2024-01-06T08:59:24;15.63;;;9.67;;
7205;SDS011;3644;53.480;10.004;2024-01-06T09:01:49;11.40;;;7.33;;
7205;SDS011;3644;53.480;10.004;2024-01-06T09:04:15;15.30;;;9.00;;
7205;SDS011;3644;53.480;10.004;2024-01-06T09:06:40;12.33;;;8.63;;
7205;SDS011;3644;53.480;10.004;2024-01-06T09:09:10;10.73;;;7.93;;
7205;SDS011;3644;53.480;10.004;2024-01-06T09:11:35;13.20;;;8.50;;
7205;SDS011;3644;53.480;10.004;2024-01-06T09:14:01;13.63;;;7.50;;
7205;SDS011;3644;53.480;10.004;2024-01-06T09:16:26;13.20;;;9.30;;
7205;SDS011;3644;53.480;10.004;2024-01-06T09:18:52;17.17;;;7.63;;
7205;SDS011;3644;53.480;10.004;2024-01-06T09:21:17;11.10;;;6.67;;
7205;SDS011;3644;53.480;10.004;2024-01-06T09:23:43;18.70;;;7.87;;
7205;SDS011;3644;53.480;10.004;2024-01-06T09:26:08;12.23;;;7.60;;
7205;SDS011;3644;53.480;10.004;2024-01-06T09:28:34;18.30;;;8.50;;
7205;SDS011;3644;53.480;10.004;2024-01-06T09:31:00;11.90;;;8.90;;
7205;SDS011;3644;53.480;10.004;2024-01-06T09:33:25;16.50;;;10.53;;
7205;SDS011;3644;53.480;10.004;2024-01-06T09:35:51;19.70;;;8.87;;
7205;SDS011;3644;53.480;10.004;2024-01-06T09:38:18;15.43;;;8.50;;
7205;SDS011;3644;53.480;10.004;2024-01-06T09:40:44;16.20;;;8.30;;
7205;SDS011;3644;53.480;10.004;2024-01-06T09:43:10;18.90;;;9.53;;
7205;SDS011;3644;53.480;10.004;2024-01-06T09:45:36;16.60;;;8.00;;
7205;SDS011;3644;53.480;10.004;2024-01-06T09:48:06;14.67;;;8.37;;
7205;SDS011;3644;53.480;10.004;2024-01-06T09:50:37;20.50;;;9.50;;
7205;SDS011;3644;53.480;10.004;2024-01-06T09:53:05;13.90;;;8.87;;
7205;SDS011;3644;53.480;10.004;2024-01-06T09:55:33;17.60;;;8.80;;
7205;SDS011;3644;53.480;10.004;2024-01-06T09:58:00;13.03;;;8.03;;
7205;SDS011;3644;53.480;10.004;2024-01-06T10:00:26;18.80;;;10.57;;
7205;SDS011;3644;53.480;10.004;2024-01-06T10:02:52;17.90;;;9.80;;
7205;SDS011;3644;53.480;10.004;2024-01-06T10:05:17;16.23;;;9.20;;
7205;SDS011;3644;53.480;10.004;2024-01-06T10:07:44;18.63;;;11.13;;
7205;SDS011;3644;53.480;10.004;2024-01-06T10:10:10;13.90;;;9.00;;
7205;SDS011;3644;53.480;10.004;2024-01-06T10:12:42;13.47;;;8.20;;
7205;SDS011;3644;53.480;10.004;2024-01-06T10:15:08;15.63;;;9.20;;
7205;SDS011;3644;53.480;10.004;2024-01-06T10:17:39;16.03;;;8.33;;
7205;SDS011;3644;53.480;10.004;2024-01-06T10:20:09;16.30;;;9.13;;
7205;SDS011;3644;53.480;10.004;2024-01-06T10:22:36;16.37;;;9.40;;
7205;SDS011;3644;53.480;10.004;2024-01-06T10:25:06;14.27;;;8.70;;
7205;SDS011;3644;53.480;10.004;2024-01-06T10:27:36;25.33;;;11.77;;
7205;SDS011;3644;53.480;10.004;2024-01-06T10:30:04;12.40;;;8.13;;
7205;SDS011;3644;53.480;10.004;2024-01-06T10:32:31;15.73;;;8.73;;
7205;SDS011;3644;53.480;10.004;2024-01-06T10:34:57;16.23;;;9.60;;
7205;SDS011;3644;53.480;10.004;2024-01-06T10:37:23;22.50;;;9.00;;
7205;SDS011;3644;53.480;10.004;2024-01-06T10:40:04;14.10;;;8.53;;
7205;SDS011;3644;53.480;10.004;2024-01-06T10:42:34;13.13;;;9.20;;
7205;SDS011;3644;53.480;10.004;2024-01-06T10:45:01;12.70;;;8.57;;
7205;SDS011;3644;53.480;10.004;2024-01-06T10:47:28;9.63;;;7.50;;
7205;SDS011;3644;53.480;10.004;2024-01-06T10:49:58;15.03;;;7.67;;
7205;SDS011;3644;53.480;10.004;2024-01-06T10:52:25;15.90;;;8.40;;
7205;SDS011;3644;53.480;10.004;2024-01-06T10:54:54;11.43;;;7.93;;
7205;SDS011;3644;53.480;10.004;2024-01-06T10:57:20;11.00;;;7.83;;
7205;SDS011;3644;53.480;10.004;2024-01-06T10:59:49;14.53;;;8.53;;
7205;SDS011;3644;53.480;10.004;2024-01-06T11:02:15;15.47;;;7.97;;
7205;SDS011;3644;53.480;10.004;2024-01-06T11:04:42;14.13;;;7.47;;
7205;SDS011;3644;53.480;10.004;2024-01-06T11:07:10;11.00;;;7.60;;
7205;SDS011;3644;53.480;10.004;2024-01-06T11:09:36;11.07;;;7.40;;
7205;SDS011;3644;53.480;10.004;2024-01-06T11:12:04;18.23;;;8.37;;
7205;SDS011;3644;53.480;10.004;2024-01-06T11:14:36;15.90;;;10.77;;
7205;SDS011;3644;53.480;10.004;2024-01-06T11:17:02;17.50;;;9.07;;
7205;SDS011;3644;53.480;10.004;2024-01-06T11:24:55;10.13;;;6.93;;
7205;SDS011;3644;53.480;10.004;2024-01-06T11:27:26;12.10;;;8.00;;
7205;SDS011;3644;53.480;10.004;2024-01-06T11:29:56;10.17;;;8.13;;
7205;SDS011;3644;53.480;10.004;2024-01-06T11:34:55;11.30;;;7.30;;
7205;SDS011;3644;53.480;10.004;2024-01-06T11:37:36;12.73;;;7.43;;
7205;SDS011;3644;53.480;10.004;2024-01-06T11:40:08;16.33;;;8.60;;
7205;SDS011;3644;53.480;10.004;2024-01-06T11:42:46;10.57;;;7.40;;
7205;SDS011;3644;53.480;10.004;2024-01-06T11:45:13;15.60;;;8.70;;
7205;SDS011;3644;53.480;10.004;2024-01-06T11:47:39;12.83;;;7.40;;
7205;SDS011;3644;53.480;10.004;2024-01-06T11:50:06;14.10;;;8.73;;
7205;SDS011;3644;53.480;10.004;2024-01-06T11:52:32;12.85;;;7.68;;
7205;SDS011;3644;53.480;10.004;2024-01-06T11:54:58;13.50;;;9.63;;
7205;SDS011;3644;53.480;10.004;2024-01-06T11:57:27;19.60;;;11.27;;
7205;SDS011;3644;53.480;10.004;2024-01-06T11:59:54;11.47;;;8.20;;
7205;SDS011;3644;53.480;10.004;2024-01-06T12:02:20;9.80;;;7.63;;
7205;SDS011;3644;53.480;10.004;2024-01-06T12:04:49;10.32;;;6.50;;
7205;SDS011;3644;53.480;10.004;2024-01-06T12:07:16;12.40;;;6.90;;
7205;SDS011;3644;53.480;10.004;2024-01-06T12:09:42;9.53;;;6.30;;
7205;SDS011;3644;53.480;10.004;2024-01-06T12:12:08;12.10;;;7.23;;
7205;SDS011;3644;53.480;10.004;2024-01-06T12:14:39;9.47;;;7.23;;
7205;SDS011;3644;53.480;10.004;2024-01-06T12:17:07;9.80;;;6.10;;
7205;SDS011;3644;53.480;10.004;2024-01-06T12:19:33;13.93;;;8.10;;
7205;SDS011;3644;53.480;10.004;2024-01-06T12:21:58;8.90;;;6.23;;
7205;SDS011;3644;53.480;10.004;2024-01-06T12:24:26;32.97;;;7.40;;
7205;SDS011;3644;53.480;10.004;2024-01-06T12:26:52;15.53;;;6.27;;
7205;SDS011;3644;53.480;10.004;2024-01-06T12:29:18;10.17;;;7.03;;
7205;SDS011;3644;53.480;10.004;2024-01-06T12:31:44;7.17;;;6.20;;
7205;SDS011;3644;53.480;10.004;2024-01-06T12:34:11;9.70;;;6.97;;
7205;SDS011;3644;53.480;10.004;2024-01-06T12:36:37;10.57;;;6.63;;
7205;SDS011;3644;53.480;10.004;2024-01-06T12:39:03;9.40;;;6.93;;
7205;SDS011;3644;53.480;10.004;2024-01-06T12:41:29;10.83;;;7.70;;
7205;SDS011;3644;53.480;10.004;2024-01-06T12:43:54;9.90;;;7.00;;
7205;SDS011;3644;53.480;10.004;2024-01-06T12:46:20;8.17;;;6.23;;
7205;SDS011;3644;53.480;10.004;2024-01-06T12:48:45;8.20;;;5.93;;
7205;SDS011;3644;53.480;10.004;2024-01-06T12:51:11;10.27;;;6.70;;
7205;SDS011;3644;53.480;10.004;2024-01-06T12:53:36;14.63;;;8.80;;
7205;SDS011;3644;53.480;10.004;2024-01-06T12:56:02;6.33;;;5.73;;
7205;SDS011;3644;53.480;10.004;2024-01-06T12:58:28;13.43;;;7.53;;
7205;SDS011;3644;53.480;10.004;2024-01-06T13:00:53;11.00;;;6.70;;
7205;SDS011;3644;53.480;10.004;2024-01-06T13:03:19;12.60;;;5.90;;
7205;SDS011;3644;53.480;10.004;2024-01-06T13:05:45;6.47;;;5.50;;
7205;SDS011;3644;53.480;10.004;2024-01-06T13:08:10;9.03;;;5.57;;
7205;SDS011;3644;53.480;10.004;2024-01-06T13:10:36;7.80;;;4.60;;
7205;SDS011;3644;53.480;10.004;2024-01-06T13:13:02;11.63;;;5.53;;
7205;SDS011;3644;53.480;10.004;2024-01-06T13:15:27;8.17;;;6.27;;
7205;SDS011;3644;53.480;10.004;2024-01-06T13:17:53;6.13;;;5.50;;
7205;SDS011;3644;53.480;10.004;2024-01-06T13:20:18;8.27;;;5.40;;
7205;SDS011;3644;53.480;10.004;2024-01-06T13:22:44;10.87;;;6.00;;
7205;SDS011;3644;53.480;10.004;2024-01-06T13:25:10;6.27;;;4.90;;
7205;SDS011;3644;53.480;10.004;2024-01-06T13:27:36;7.47;;;5.30;;
7205;SDS011;3644;53.480;10.004;2024-01-06T13:30:03;10.40;;;6.60;;
7205;SDS011;3644;53.480;10.004;2024-01-06T13:32:29;8.37;;;6.03;;
7205;SDS011;3644;53.480;10.004;2024-01-06T13:34:54;9.10;;;5.60;;
7205;SDS011;3644;53.480;10.004;2024-01-06T13:37:26;14.73;;;6.27;;
7205;SDS011;3644;53.480;10.004;2024-01-06T13:39:52;7.80;;;5.63;;
7205;SDS011;3644;53.480;10.004;2024-01-06T13:42:18;8.63;;;4.77;;
7205;SDS011;3644;53.480;10.004;2024-01-06T13:44:46;10.77;;;6.40;;
7205;SDS011;3644;53.480;10.004;2024-01-06T13:47:13;4.60;;;4.03;;
7205;SDS011;3644;53.480;10.004;2024-01-06T13:49:39;5.73;;;5.10;;
7205;SDS011;3644;53.480;10.004;2024-01-06T13:52:04;7.73;;;5.40;;
7205;SDS011;3644;53.480;10.004;2024-01-06T13:54:30;8.47;;;5.73;;
7205;SDS011;3644;53.480;10.004;2024-01-06T13:56:55;7.63;;;5.63;;
7205;SDS011;3644;53.480;10.004;2024-01-06T13:59:21;10.30;;;6.20;;
7205;SDS011;3644;53.480;10.004;2024-01-06T14:01:47;5.80;;;4.70;;
7205;SDS011;3644;53.480;10.004;2024-01-06T14:04:12;10.40;;;5.13;;
7205;SDS011;3644;53.480;10.004;2024-01-06T14:06:38;6.80;;;4.63;;
7205;SDS011;3644;53.480;10.004;2024-01-06T14:09:04;8.03;;;5.43;;
7205;SDS011;3644;53.480;10.004;2024-01-06T14:11:30;7.27;;;5.40;;
7205;SDS011;3644;53.480;10.004;2024-01-06T14:13:59;11.73;;;5.97;;
7205;SDS011;3644;53.480;10.004;2024-01-06T14:16:25;8.60;;;5.07;;
7205;SDS011;3644;53.480;10.004;2024-01-06T14:18:51;6.80;;;5.40;;
7205;SDS011;3644;53.480;10.004;2024-01-06T14:21:16;7.93;;;5.33;;
7205;SDS011;3644;53.480;10.004;2024-01-06T14:23:44;8.13;;;4.80;;
7205;SDS011;3644;53.480;10.004;2024-01-06T14:26:10;6.77;;;5.03;;
7205;SDS011;3644;53.480;10.004;2024-01-06T14:28:36;5.60;;;4.57;;
7205;SDS011;3644;53.480;10.004;2024-01-06T14:31:02;9.07;;;5.57;;
7205;SDS011;3644;53.480;10.004;2024-01-06T14:33:27;4.87;;;4.47;;
7205;SDS011;3644;53.480;10.004;2024-01-06T14:35:53;5.60;;;4.40;;
7205;SDS011;3644;53.480;10.004;2024-01-06T14:38:19;5.27;;;4.37;;
7205;SDS011;3644;53.480;10.004;2024-01-06T14:40:44;11.83;;;5.70;;
7205;SDS011;3644;53.480;10.004;2024-01-06T14:43:10;7.40;;;6.27;;
7205;SDS011;3644;53.480;10.004;2024-01-06T14:45:35;9.53;;;6.77;;
7205;SDS011;3644;53.480;10.004;2024-01-06T14:48:01;7.67;;;6.10;;
7205;SDS011;3644;53.480;10.004;2024-01-06T14:50:27;10.87;;;6.30;;
7205;SDS011;3644;53.480;10.004;2024-01-06T14:52:53;7.47;;;6.07;;